Time;durP1;ratioP1;P1;durP2;ratioP2;P2;SDS_P1;SDS_P2;PMS_P1;PMS_P2;Temp;Humidity;BMP_temperature;BMP_pressure;BME280_temperature;BME280_humidity;BME280_pressure;Samples;Min_cycle;Max_cycle;Signal;HPM_P1;HPM_P2
2022/05/15 00:02:50;;;;;;;5.43;3.20;;;;;;;;;;4997960;28;20192;-62
2022/05/15 00:05:18;;;;;;;9.07;3.17;;;;;;;;;;5006557;28;20216;-62
2022/05/15 00:07:48;;;;;;;7.13;3.10;;;;;;;;;;5011620;28;20199;-62
2022/05/15 00:10:20;;;;;;;5.43;2.80;;;;;;;;;;5006532;28;20250;-61
2022/05/15 00:12:47;;;;;;;5.00;2.87;;;;;;;;;;5009774;28;20260;-62
2022/05/15 00:15:17;;;;;;;4.80;2.97;;;;;;;;;;5006160;28;20239;-62
2022/05/15 00:17:49;;;;;;;5.40;3.27;;;;;;;;;;5008304;28;20649;-61
2022/05/15 00:20:20;;;;;;;4.37;2.73;;;;;;;;;;5006015;28;20603;-61
2022/05/15 00:22:53;;;;;;;6.27;2.93;;;;;;;;;;5005811;28;20223;-61
2022/05/15 00:25:22;;;;;;;5.73;2.87;;;;;;;;;;5008707;28;20196;-62
2022/05/15 00:27:56;;;;;;;4.40;3.00;;;;;;;;;;4992759;28;20253;-61
2022/05/15 00:30:23;;;;;;;4.87;3.10;;;;;;;;;;5003321;28;20246;-61
2022/05/15 00:32:50;;;;;;;6.60;2.97;;;;;;;;;;4994170;28;20207;-62
2022/05/15 00:35:20;;;;;;;5.40;3.27;;;;;;;;;;5008672;28;20211;-62
2022/05/15 00:37:53;;;;;;;7.30;2.53;;;;;;;;;;5008555;28;20222;-61
2022/05/15 00:40:21;;;;;;;5.67;2.90;;;;;;;;;;5018314;28;20227;-61
2022/05/15 00:42:50;;;;;;;5.03;2.80;;;;;;;;;;5008917;28;20200;-62
2022/05/15 00:45:28;;;;;;;5.10;2.77;;;;;;;;;;5008522;28;20208;-62
2022/05/15 00:48:00;;;;;;;4.97;3.10;;;;;;;;;;5013640;28;20481;-62
2022/05/15 00:50:33;;;;;;;3.83;2.60;;;;;;;;;;4988178;28;20222;-61
2022/05/15 00:53:06;;;;;;;6.97;3.00;;;;;;;;;;5025255;28;20223;-61
2022/05/15 00:55:44;;;;;;;4.63;2.67;;;;;;;;;;5007984;28;20203;-61
2022/05/15 00:58:31;;;;;;;5.70;2.90;;;;;;;;;;5006873;28;20196;-61
2022/05/15 01:01:07;;;;;;;4.93;2.80;;;;;;;;;;4996420;28;20212;-62
2022/05/15 01:03:38;;;;;;;4.27;2.57;;;;;;;;;;5011292;28;20207;-62
2022/05/15 01:06:08;;;;;;;6.37;3.10;;;;;;;;;;5005693;28;20219;-62
2022/05/15 01:08:41;;;;;;;4.57;2.70;;;;;;;;;;5021177;28;20228;-61
2022/05/15 01:11:12;;;;;;;7.13;3.00;;;;;;;;;;5008196;28;20683;-62
2022/05/15 01:13:44;;;;;;;5.43;3.20;;;;;;;;;;5008351;28;20204;-62
2022/05/15 01:16:13;;;;;;;5.03;3.03;;;;;;;;;;4987245;28;20204;-61
2022/05/15 01:18:47;;;;;;;5.93;3.03;;;;;;;;;;4997652;28;20195;-61
2022/05/15 01:21:28;;;;;;;6.00;3.27;;;;;;;;;;5006168;28;20215;-62
2022/05/15 01:24:00;;;;;;;5.10;2.70;;;;;;;;;;5008544;28;20210;-62
2022/05/15 01:26:38;;;;;;;5.30;3.10;;;;;;;;;;5005356;28;20191;-62
2022/05/15 01:29:07;;;;;;;6.67;3.03;;;;;;;;;;5010100;28;20357;-61
2022/05/15 01:31:38;;;;;;;5.10;2.70;;;;;;;;;;4990574;28;20200;-62
2022/05/15 01:34:13;;;;;;;3.73;2.73;;;;;;;;;;5010120;28;20188;-61
2022/05/15 01:36:40;;;;;;;7.00;3.30;;;;;;;;;;5007104;28;20208;-62
2022/05/15 01:39:12;;;;;;;5.80;3.13;;;;;;;;;;5008536;28;20200;-62
2022/05/15 01:41:43;;;;;;;5.63;2.90;;;;;;;;;;5007386;28;20286;-62
2022/05/15 01:44:18;;;;;;;5.63;2.93;;;;;;;;;;5000678;28;20215;-62
2022/05/15 01:46:53;;;;;;;6.27;2.50;;;;;;;;;;5007387;28;20652;-62
2022/05/15 01:49:24;;;;;;;4.80;3.00;;;;;;;;;;5013788;28;20207;-62
2022/05/15 01:51:54;;;;;;;5.43;3.00;;;;;;;;;;5022514;28;20226;-62
2022/05/15 01:54:26;;;;;;;5.67;3.17;;;;;;;;;;5007388;28;20211;-61
2022/05/15 01:56:56;;;;;;;5.23;3.03;;;;;;;;;;5003796;28;20243;-62
2022/05/15 01:59:26;;;;;;;4.93;3.00;;;;;;;;;;5006981;28;20266;-61
2022/05/15 02:01:57;;;;;;;6.17;3.03;;;;;;;;;;5007378;28;20224;-62
2022/05/15 02:04:27;;;;;;;4.13;2.60;;;;;;;;;;5005254;28;20199;-62
2022/05/15 02:06:58;;;;;;;5.00;2.90;;;;;;;;;;5009137;28;20528;-62
2022/05/15 02:09:31;;;;;;;5.13;2.70;;;;;;;;;;5017143;28;20237;-62
2022/05/15 02:12:05;;;;;;;6.43;2.97;;;;;;;;;;5006000;28;20199;-61
2022/05/15 02:14:32;;;;;;;4.37;2.87;;;;;;;;;;5004856;28;20864;-61
2022/05/15 02:16:59;;;;;;;3.97;2.70;;;;;;;;;;5004932;28;20230;-62
2022/05/15 02:19:38;;;;;;;5.07;2.80;;;;;;;;;;5007967;28;20282;-62
2022/05/15 02:22:12;;;;;;;4.67;3.07;;;;;;;;;;5006726;28;20562;-61
2022/05/15 02:24:40;;;;;;;5.10;2.20;;;;;;;;;;5011709;28;20211;-61
2022/05/15 02:27:09;;;;;;;5.47;2.97;;;;;;;;;;4991960;28;20195;-61
2022/05/15 02:29:37;;;;;;;3.73;2.50;;;;;;;;;;5009226;28;20220;-62
2022/05/15 02:32:08;;;;;;;4.83;2.70;;;;;;;;;;5008059;28;20195;-62
2022/05/15 02:34:39;;;;;;;4.90;2.90;;;;;;;;;;5011238;28;20242;-62
2022/05/15 02:37:13;;;;;;;3.50;2.50;;;;;;;;;;5007489;28;20196;-61
2022/05/15 02:39:45;;;;;;;4.80;2.63;;;;;;;;;;5006776;28;20191;-62
2022/05/15 02:42:16;;;;;;;4.17;2.63;;;;;;;;;;5003451;28;20281;-61
2022/05/15 02:44:46;;;;;;;4.27;2.77;;;;;;;;;;4989255;28;20183;-62
2022/05/15 02:47:17;;;;;;;6.10;3.33;;;;;;;;;;5007436;28;20617;-62
2022/05/15 02:52:35;;;;;;;5.10;2.80;;;;;;;;;;5003494;28;20571;-62
2022/05/15 02:55:03;;;;;;;5.73;2.87;;;;;;;;;;5012330;28;20204;-62
2022/05/15 02:57:30;;;;;;;5.67;2.87;;;;;;;;;;5007205;28;20860;-62
2022/05/15 02:59:57;;;;;;;5.70;2.87;;;;;;;;;;5011456;28;20270;-62
2022/05/15 03:02:24;;;;;;;4.60;2.90;;;;;;;;;;5004451;28;20223;-62
2022/05/15 03:04:51;;;;;;;4.00;2.80;;;;;;;;;;5007801;28;20222;-62
2022/05/15 03:07:19;;;;;;;4.50;2.77;;;;;;;;;;5007461;28;20314;-62
2022/05/15 03:09:47;;;;;;;5.90;2.90;;;;;;;;;;5008965;28;20242;-62
2022/05/15 03:12:14;;;;;;;4.20;2.70;;;;;;;;;;5003583;28;20201;-62
2022/05/15 03:14:41;;;;;;;4.33;2.47;;;;;;;;;;5007390;28;20204;-62
2022/05/15 03:17:08;;;;;;;7.13;2.93;;;;;;;;;;4987165;28;20637;-62
2022/05/15 03:19:36;;;;;;;4.07;2.80;;;;;;;;;;5007328;28;20351;-62
2022/05/15 03:22:03;;;;;;;4.17;2.83;;;;;;;;;;5000807;28;20219;-62
2022/05/15 03:24:30;;;;;;;4.43;2.40;;;;;;;;;;5009923;28;20210;-62
2022/05/15 03:26:58;;;;;;;4.47;2.80;;;;;;;;;;5006627;28;20613;-62
2022/05/15 03:29:26;;;;;;;5.07;3.03;;;;;;;;;;5008908;28;20215;-62
2022/05/15 03:31:53;;;;;;;5.20;2.80;;;;;;;;;;5006049;28;20208;-62
2022/05/15 03:34:20;;;;;;;5.17;3.30;;;;;;;;;;5007901;28;20200;-62
2022/05/15 03:36:49;;;;;;;5.20;2.43;;;;;;;;;;5002551;28;20617;-62
2022/05/15 03:39:16;;;;;;;4.93;2.70;;;;;;;;;;5009430;28;20248;-62
2022/05/15 03:41:43;;;;;;;3.97;2.67;;;;;;;;;;5002786;28;20236;-62
2022/05/15 03:44:10;;;;;;;7.10;3.10;;;;;;;;;;5006375;28;20192;-61
2022/05/15 03:46:39;;;;;;;3.90;2.70;;;;;;;;;;5005917;28;20183;-62
2022/05/15 03:49:06;;;;;;;4.13;2.40;;;;;;;;;;5007727;28;21100;-62
2022/05/15 03:51:33;;;;;;;5.97;3.17;;;;;;;;;;5006518;28;20211;-61
2022/05/15 03:54:01;;;;;;;3.93;2.47;;;;;;;;;;5003875;28;20273;-62
2022/05/15 03:59:14;;;;;;;4.83;3.03;;;;;;;;;;5014783;28;20199;-61
2022/05/15 04:01:42;;;;;;;5.37;2.63;;;;;;;;;;5009910;28;20212;-63
2022/05/15 04:04:09;;;;;;;5.20;2.67;;;;;;;;;;5010785;28;20198;-63
2022/05/15 04:06:38;;;;;;;4.10;2.30;;;;;;;;;;5007811;28;20196;-63
2022/05/15 04:09:07;;;;;;;5.20;2.83;;;;;;;;;;5012236;28;20309;-63
2022/05/15 04:11:35;;;;;;;3.87;2.77;;;;;;;;;;5009894;28;20285;-62
2022/05/15 04:14:18;;;;;;;4.80;2.60;;;;;;;;;;4994452;28;20210;-62
2022/05/15 04:16:46;;;;;;;4.87;2.90;;;;;;;;;;5006962;28;20224;-61
2022/05/15 04:19:21;;;;;;;6.37;2.90;;;;;;;;;;5008364;28;20211;-61
2022/05/15 04:21:53;;;;;;;6.53;2.80;;;;;;;;;;5009543;28;20211;-62
2022/05/15 04:24:22;;;;;;;5.10;2.47;;;;;;;;;;5022502;28;20199;-62
2022/05/15 04:26:53;;;;;;;4.40;3.07;;;;;;;;;;5009252;28;20196;-63
2022/05/15 04:29:26;;;;;;;5.10;2.73;;;;;;;;;;5010506;28;20443;-63
2022/05/15 04:31:59;;;;;;;4.53;2.50;;;;;;;;;;5008195;28;20242;-61
2022/05/15 04:34:31;;;;;;;4.90;2.60;;;;;;;;;;5009575;28;20198;-62
2022/05/15 04:36:58;;;;;;;5.27;2.70;;;;;;;;;;5002000;28;20209;-61
2022/05/15 04:39:25;;;;;;;5.73;3.07;;;;;;;;;;5001672;28;20202;-61
2022/05/15 04:41:58;;;;;;;5.93;3.30;;;;;;;;;;4993591;28;20282;-63
2022/05/15 04:44:29;;;;;;;4.77;2.80;;;;;;;;;;4999816;28;20199;-63
2022/05/15 04:46:59;;;;;;;5.50;2.67;;;;;;;;;;5005912;28;20191;-63
2022/05/15 04:49:30;;;;;;;5.83;2.67;;;;;;;;;;4992947;28;20274;-63
2022/05/15 04:51:59;;;;;;;8.60;2.90;;;;;;;;;;5008539;28;20760;-62
2022/05/15 04:54:31;;;;;;;5.53;3.00;;;;;;;;;;5002875;28;20287;-63
2022/05/15 04:57:02;;;;;;;6.57;2.87;;;;;;;;;;5008153;28;20192;-63
2022/05/15 04:59:36;;;;;;;7.93;2.83;;;;;;;;;;5009529;28;20222;-63
2022/05/15 05:02:07;;;;;;;4.83;2.53;;;;;;;;;;5011531;28;20768;-61
2022/05/15 05:04:37;;;;;;;5.30;3.03;;;;;;;;;;5005015;28;20258;-61
2022/05/15 05:07:08;;;;;;;5.40;3.10;;;;;;;;;;5011165;28;20269;-61
2022/05/15 05:09:39;;;;;;;5.63;2.70;;;;;;;;;;5006492;28;20238;-62
2022/05/15 05:12:10;;;;;;;7.20;3.30;;;;;;;;;;4996108;28;20198;-63
2022/05/15 05:14:40;;;;;;;5.47;2.70;;;;;;;;;;5008141;28;20215;-63
2022/05/15 05:17:12;;;;;;;9.00;3.23;;;;;;;;;;5005512;28;20224;-61
2022/05/15 05:19:44;;;;;;;8.90;3.10;;;;;;;;;;4992133;28;20490;-61
2022/05/15 05:22:13;;;;;;;6.77;3.37;;;;;;;;;;4982306;28;20216;-61
2022/05/15 05:24:44;;;;;;;5.60;2.93;;;;;;;;;;5004359;28;20199;-62
2022/05/15 05:27:13;;;;;;;5.93;3.03;;;;;;;;;;5007289;28;20200;-61
2022/05/15 05:29:42;;;;;;;4.43;2.63;;;;;;;;;;5000315;28;20204;-61
2022/05/15 05:32:12;;;;;;;7.43;3.67;;;;;;;;;;5012048;28;20468;-61
2022/05/15 05:34:41;;;;;;;5.50;3.00;;;;;;;;;;5008062;28;20340;-61
2022/05/15 05:37:11;;;;;;;5.33;2.97;;;;;;;;;;5013636;28;20207;-61
2022/05/15 05:39:41;;;;;;;5.87;3.27;;;;;;;;;;5004125;28;20203;-61
2022/05/15 05:42:11;;;;;;;5.97;3.30;;;;;;;;;;5005091;28;20251;-60
2022/05/15 05:44:38;;;;;;;4.50;3.00;;;;;;;;;;5007337;28;20601;-60
2022/05/15 05:47:05;;;;;;;6.07;3.17;;;;;;;;;;5008193;28;20203;-60
2022/05/15 05:49:33;;;;;;;6.33;2.93;;;;;;;;;;5007161;28;20194;-60
2022/05/15 05:52:03;;;;;;;6.90;3.40;;;;;;;;;;5010308;28;20203;-61
2022/05/15 05:54:32;;;;;;;5.97;3.30;;;;;;;;;;5001429;28;20202;-62
2022/05/15 05:56:59;;;;;;;6.67;3.00;;;;;;;;;;5008546;28;20309;-62
2022/05/15 05:59:27;;;;;;;6.90;3.47;;;;;;;;;;4999632;28;20199;-62
2022/05/15 06:01:54;;;;;;;7.47;3.30;;;;;;;;;;5003760;28;20306;-61
2022/05/15 06:04:40;;;;;;;5.87;3.10;;;;;;;;;;5003203;28;20199;-61
2022/05/15 06:07:08;;;;;;;6.17;3.00;;;;;;;;;;4996206;28;20333;-60
2022/05/15 06:09:40;;;;;;;8.57;3.70;;;;;;;;;;5022099;28;20274;-60
2022/05/15 06:12:09;;;;;;;7.40;3.87;;;;;;;;;;5012409;28;20204;-62
2022/05/15 06:14:36;;;;;;;8.30;3.97;;;;;;;;;;4989008;28;20211;-62
2022/05/15 06:17:03;;;;;;;6.23;3.37;;;;;;;;;;5008487;28;20665;-61
2022/05/15 06:19:30;;;;;;;5.97;3.07;;;;;;;;;;5004251;28;20206;-62
2022/05/15 06:21:58;;;;;;;5.63;3.30;;;;;;;;;;5009555;28;20231;-62
2022/05/15 06:24:28;;;;;;;6.23;3.13;;;;;;;;;;5004651;28;20226;-62
2022/05/15 06:26:58;;;;;;;5.27;3.40;;;;;;;;;;5008508;28;20337;-61
2022/05/15 06:29:25;;;;;;;6.83;3.53;;;;;;;;;;5003900;28;20768;-61
2022/05/15 06:31:52;;;;;;;20.73;8.17;;;;;;;;;;5003460;28;20664;-61
2022/05/15 06:34:22;;;;;;;32.77;11.00;;;;;;;;;;4989467;28;20184;-62
2022/05/15 06:36:53;;;;;;;39.97;13.57;;;;;;;;;;4994520;28;20205;-62
2022/05/15 06:39:24;;;;;;;43.87;13.13;;;;;;;;;;4981883;28;20234;-61
2022/05/15 06:41:59;;;;;;;43.63;13.93;;;;;;;;;;5009497;28;20250;-61
2022/05/15 06:44:29;;;;;;;40.47;14.47;;;;;;;;;;5004390;28;20205;-61
2022/05/15 06:46:59;;;;;;;37.83;12.90;;;;;;;;;;5006848;28;20207;-60
2022/05/15 06:49:30;;;;;;;34.77;12.07;;;;;;;;;;5006600;28;20544;-61
2022/05/15 06:51:59;;;;;;;30.20;11.17;;;;;;;;;;5009590;28;20307;-60
2022/05/15 06:54:30;;;;;;;29.23;11.03;;;;;;;;;;5001442;28;20220;-61
2022/05/15 06:59:50;;;;;;;29.33;9.90;;;;;;;;;;5000683;28;20184;-62
2022/05/15 07:02:20;;;;;;;32.67;10.07;;;;;;;;;;4986915;28;20553;-61
2022/05/15 07:04:52;;;;;;;24.43;8.20;;;;;;;;;;5004412;28;20453;-61
2022/05/15 07:07:20;;;;;;;20.37;8.30;;;;;;;;;;4999921;28;20204;-60
2022/05/15 07:09:51;;;;;;;18.93;7.83;;;;;;;;;;4989138;28;20298;-60
2022/05/15 07:12:21;;;;;;;19.47;7.43;;;;;;;;;;4990711;28;20212;-61
2022/05/15 07:14:49;;;;;;;16.87;7.00;;;;;;;;;;4985471;28;20208;-60
2022/05/15 07:17:16;;;;;;;18.03;7.27;;;;;;;;;;4986922;28;20567;-59
2022/05/15 07:19:45;;;;;;;14.60;6.87;;;;;;;;;;5003088;28;20226;-59
2022/05/15 07:22:16;;;;;;;11.77;6.37;;;;;;;;;;4992187;28;20208;-62
2022/05/15 07:24:47;;;;;;;16.37;6.90;;;;;;;;;;4994245;28;20200;-60
2022/05/15 07:27:18;;;;;;;12.40;5.57;;;;;;;;;;4997477;28;20292;-62
2022/05/15 07:29:48;;;;;;;10.07;5.73;;;;;;;;;;4991746;28;20234;-63
2022/05/15 07:32:20;;;;;;;12.10;5.47;;;;;;;;;;4998177;28;20219;-60
2022/05/15 07:34:52;;;;;;;13.43;6.10;;;;;;;;;;5008762;28;20704;-61
2022/05/15 07:37:23;;;;;;;13.17;5.53;;;;;;;;;;5007283;28;20253;-61
2022/05/15 07:39:55;;;;;;;9.70;5.30;;;;;;;;;;4993710;28;20263;-61
2022/05/15 07:42:25;;;;;;;8.83;5.23;;;;;;;;;;4990851;28;20681;-61
2022/05/15 07:44:54;;;;;;;9.63;5.17;;;;;;;;;;4994325;28;20200;-61
2022/05/15 07:47:21;;;;;;;7.83;4.70;;;;;;;;;;4997969;28;20267;-61
2022/05/15 07:49:48;;;;;;;8.00;4.33;;;;;;;;;;4994385;28;20366;-61
2022/05/15 07:52:15;;;;;;;9.87;4.93;;;;;;;;;;4994499;28;20196;-62
2022/05/15 07:54:42;;;;;;;9.30;4.10;;;;;;;;;;5001628;28;20586;-62
2022/05/15 07:57:09;;;;;;;8.67;4.40;;;;;;;;;;5005280;28;20195;-63
2022/05/15 07:59:37;;;;;;;7.47;4.20;;;;;;;;;;5003820;28;20196;-62
2022/05/15 08:02:06;;;;;;;8.20;4.37;;;;;;;;;;5011724;28;20215;-63
2022/05/15 08:10:07;;;;;;;7.97;3.83;;;;;;;;;;5001386;28;20607;-62
2022/05/15 08:12:37;;;;;;;9.30;3.90;;;;;;;;;;5009193;28;20211;-63
2022/05/15 08:15:05;;;;;;;7.03;3.47;;;;;;;;;;5009281;28;20207;-62
2022/05/15 08:17:32;;;;;;;5.53;3.87;;;;;;;;;;5011762;28;20514;-62
2022/05/15 08:25:32;;;;;;;6.83;3.83;;;;;;;;;;5008417;28;20627;-60
2022/05/15 08:27:59;;;;;;;7.27;3.90;;;;;;;;;;5007073;28;20573;-61
2022/05/15 08:30:27;;;;;;;5.73;3.63;;;;;;;;;;4991865;28;20212;-61
2022/05/15 08:32:54;;;;;;;10.30;3.90;;;;;;;;;;5008954;28;20200;-61
2022/05/15 08:35:21;;;;;;;7.20;4.03;;;;;;;;;;5008623;28;20690;-62
2022/05/15 08:37:49;;;;;;;10.13;4.40;;;;;;;;;;5008816;28;20217;-61
2022/05/15 08:40:19;;;;;;;5.97;3.67;;;;;;;;;;5000738;28;20811;-61
2022/05/15 08:42:56;;;;;;;9.97;3.70;;;;;;;;;;5007853;28;20219;-61
2022/05/15 08:45:25;;;;;;;7.80;3.73;;;;;;;;;;5003817;28;20207;-62
2022/05/15 08:48:12;;;;;;;4.27;2.93;;;;;;;;;;5006843;28;20599;-60
2022/05/15 08:50:43;;;;;;;4.33;3.10;;;;;;;;;;4993288;28;20630;-61
2022/05/15 08:53:26;;;;;;;8.07;4.00;;;;;;;;;;5007671;28;20204;-60
2022/05/15 08:55:55;;;;;;;6.50;3.23;;;;;;;;;;5008389;28;20195;-61
2022/05/15 08:58:25;;;;;;;8.60;3.67;;;;;;;;;;5008301;28;20199;-61
2022/05/15 09:00:53;;;;;;;4.27;3.00;;;;;;;;;;5008850;28;20266;-62
2022/05/15 09:03:22;;;;;;;6.57;3.73;;;;;;;;;;5010045;28;20270;-62
2022/05/15 09:05:58;;;;;;;6.83;3.20;;;;;;;;;;4986519;28;20213;-60
2022/05/15 09:08:44;;;;;;;5.13;3.10;;;;;;;;;;4997481;28;20200;-61
2022/05/15 09:11:12;;;;;;;7.90;3.57;;;;;;;;;;5001465;28;20188;-62
2022/05/15 09:13:41;;;;;;;4.97;3.10;;;;;;;;;;4997283;28;20196;-62
2022/05/15 09:16:17;;;;;;;6.67;3.13;;;;;;;;;;4998133;28;20211;-61
2022/05/15 09:18:48;;;;;;;5.37;3.10;;;;;;;;;;4997694;28;20203;-61
2022/05/15 09:21:19;;;;;;;6.37;3.57;;;;;;;;;;4978281;28;20260;-61
2022/05/15 09:23:52;;;;;;;6.87;3.23;;;;;;;;;;4994727;28;20298;-61
2022/05/15 09:26:49;;;;;;;5.87;2.90;;;;;;;;;;4979551;28;20203;-60
2022/05/15 09:29:27;;;;;;;5.57;3.00;;;;;;;;;;4989787;28;20215;-61
2022/05/15 09:31:58;;;;;;;7.57;3.27;;;;;;;;;;4994754;28;20306;-61
2022/05/15 09:34:33;;;;;;;6.27;2.77;;;;;;;;;;4995936;28;20215;-61
2022/05/15 09:40:04;;;;;;;4.37;2.80;;;;;;;;;;5003657;28;20201;-60
2022/05/15 09:45:26;;;;;;;5.93;2.60;;;;;;;;;;4998422;28;20572;-61
2022/05/15 09:47:58;;;;;;;5.83;3.17;;;;;;;;;;4982077;28;20263;-61
2022/05/15 09:50:55;;;;;;;7.83;3.00;;;;;;;;;;4997811;28;20200;-61
2022/05/15 09:53:31;;;;;;;17.93;5.73;;;;;;;;;;5002895;28;20270;-61
2022/05/15 09:56:03;;;;;;;20.43;5.90;;;;;;;;;;5004249;28;20406;-62
2022/05/15 09:58:37;;;;;;;21.57;6.17;;;;;;;;;;5004900;28;20199;-62
2022/05/15 10:01:13;;;;;;;15.97;5.40;;;;;;;;;;5005573;28;20250;-61
2022/05/15 10:03:40;;;;;;;16.50;5.90;;;;;;;;;;5009614;28;20222;-61
2022/05/15 10:06:08;;;;;;;18.07;5.00;;;;;;;;;;4992958;28;20575;-60
2022/05/15 10:08:39;;;;;;;24.73;5.93;;;;;;;;;;4994591;28;20279;-61
2022/05/15 10:11:19;;;;;;;13.93;5.33;;;;;;;;;;4998022;28;20641;-60
2022/05/15 10:13:52;;;;;;;11.00;4.23;;;;;;;;;;4975240;28;20669;-61
2022/05/15 10:16:38;;;;;;;9.60;4.27;;;;;;;;;;4993102;28;20227;-62
2022/05/15 10:19:08;;;;;;;11.47;4.30;;;;;;;;;;4985164;28;20624;-62
2022/05/15 10:21:40;;;;;;;9.90;3.93;;;;;;;;;;5005540;28;20203;-60
2022/05/15 10:24:13;;;;;;;9.23;3.83;;;;;;;;;;5002057;28;20294;-60
2022/05/15 10:26:59;;;;;;;9.73;3.73;;;;;;;;;;5004713;28;20206;-60
2022/05/15 10:29:38;;;;;;;14.80;3.97;;;;;;;;;;5001435;28;21027;-61
2022/05/15 10:32:11;;;;;;;6.77;3.50;;;;;;;;;;5007426;28;20262;-60
2022/05/15 10:34:40;;;;;;;6.73;3.63;;;;;;;;;;4988859;28;20208;-61
2022/05/15 10:37:37;;;;;;;7.70;3.60;;;;;;;;;;5003593;28;20266;-61
2022/05/15 10:40:09;;;;;;;8.70;3.67;;;;;;;;;;5003377;28;20199;-61
2022/05/15 10:42:49;;;;;;;4.97;2.57;;;;;;;;;;5002996;28;20239;-61
2022/05/15 10:45:22;;;;;;;7.03;3.20;;;;;;;;;;4988597;28;20195;-62
2022/05/15 10:48:08;;;;;;;5.93;3.00;;;;;;;;;;5003005;28;20731;-62
2022/05/15 10:50:49;;;;;;;7.73;2.90;;;;;;;;;;5004914;28;20250;-62
2022/05/15 10:59:34;;;;;;;4.53;2.93;;;;;;;;;;5010111;28;20207;-62
2022/05/15 11:02:17;;;;;;;4.83;2.67;;;;;;;;;;4984692;28;20197;-62
2022/05/15 11:04:57;;;;;;;6.40;3.00;;;;;;;;;;4994319;28;20649;-62
2022/05/15 11:07:32;;;;;;;7.13;2.80;;;;;;;;;;5000049;28;20210;-61
2022/05/15 11:10:05;;;;;;;5.47;2.90;;;;;;;;;;4992215;28;20554;-61
2022/05/15 11:12:51;;;;;;;7.47;2.90;;;;;;;;;;4992939;28;20254;-60
2022/05/15 11:15:21;;;;;;;5.47;2.80;;;;;;;;;;4998249;28;20208;-61
2022/05/15 11:18:00;;;;;;;5.30;2.87;;;;;;;;;;5000560;28;20223;-61
2022/05/15 11:20:31;;;;;;;7.63;2.70;;;;;;;;;;5002051;28;20207;-62
2022/05/15 11:23:04;;;;;;;5.73;2.70;;;;;;;;;;5001004;28;20258;-62
2022/05/15 11:25:38;;;;;;;7.43;3.40;;;;;;;;;;5007880;28;20206;-61
2022/05/15 11:28:17;;;;;;;6.57;3.63;;;;;;;;;;5006539;28;20262;-61
2022/05/15 11:30:54;;;;;;;7.17;3.87;;;;;;;;;;4994016;28;20195;-62
2022/05/15 11:33:30;;;;;;;7.73;3.33;;;;;;;;;;5002859;28;20299;-63
2022/05/15 11:36:16;;;;;;;9.83;4.03;;;;;;;;;;4994689;28;20206;-61
2022/05/15 11:38:59;;;;;;;8.57;3.47;;;;;;;;;;4998451;28;20537;-61
2022/05/15 11:41:31;;;;;;;10.40;3.77;;;;;;;;;;5003056;28;20285;-61
2022/05/15 11:43:59;;;;;;;9.47;3.50;;;;;;;;;;5005447;28;20238;-62
2022/05/15 11:46:56;;;;;;;5.43;3.37;;;;;;;;;;4998802;28;20247;-62
2022/05/15 11:49:34;;;;;;;7.67;3.53;;;;;;;;;;4986626;28;20724;-63
2022/05/15 11:52:05;;;;;;;6.53;3.10;;;;;;;;;;5003270;28;20672;-63
2022/05/15 11:54:41;;;;;;;8.90;3.20;;;;;;;;;;4987069;28;20712;-63
2022/05/15 11:57:13;;;;;;;7.32;3.38;;;;;;;;;;4989541;28;20431;-64
2022/05/15 11:59:48;;;;;;;5.90;2.97;;;;;;;;;;5003192;28;20199;-64
2022/05/15 12:02:21;;;;;;;6.53;3.00;;;;;;;;;;4994343;28;20196;-65
2022/05/15 12:04:48;;;;;;;5.67;2.63;;;;;;;;;;4997348;28;20630;-65
2022/05/15 12:07:34;;;;;;;5.10;2.50;;;;;;;;;;5005549;28;20200;-63
2022/05/15 12:10:02;;;;;;;8.07;2.77;;;;;;;;;;4998628;28;20251;-63
2022/05/15 12:12:36;;;;;;;6.50;2.57;;;;;;;;;;4975240;28;20641;-62
2022/05/15 12:15:21;;;;;;;4.40;2.60;;;;;;;;;;5003122;28;20291;-64
2022/05/15 12:17:50;;;;;;;6.13;3.27;;;;;;;;;;4997161;28;20684;-64
2022/05/15 12:20:20;;;;;;;6.07;2.43;;;;;;;;;;5006830;28;20188;-64
2022/05/15 12:22:56;;;;;;;4.17;2.73;;;;;;;;;;5009329;28;20664;-64
2022/05/15 12:25:30;;;;;;;6.57;2.60;;;;;;;;;;5012492;28;20222;-64
2022/05/15 12:31:05;;;;;;;4.03;2.40;;;;;;;;;;5009249;28;20196;-63
2022/05/15 12:33:53;;;;;;;5.67;2.47;;;;;;;;;;4994341;28;20231;-64
2022/05/15 12:36:26;;;;;;;4.60;2.43;;;;;;;;;;5009978;28;20595;-64
2022/05/15 12:38:57;;;;;;;4.10;2.60;;;;;;;;;;5009294;28;20582;-63
2022/05/15 12:41:27;;;;;;;6.33;2.73;;;;;;;;;;5008485;28;20800;-64
2022/05/15 12:43:54;;;;;;;6.10;2.83;;;;;;;;;;5024190;28;20270;-64
2022/05/15 12:46:26;;;;;;;3.63;2.37;;;;;;;;;;5007222;28;20211;-62
2022/05/15 12:48:53;;;;;;;3.53;2.10;;;;;;;;;;5006457;28;20549;-61
2022/05/15 12:51:28;;;;;;;3.10;1.90;;;;;;;;;;5007889;28;20203;-62
2022/05/15 12:53:56;;;;;;;3.23;2.23;;;;;;;;;;5003081;28;20207;-62
2022/05/15 12:56:25;;;;;;;3.37;2.37;;;;;;;;;;5003369;28;20200;-61
2022/05/15 12:58:55;;;;;;;3.67;2.57;;;;;;;;;;5007307;28;20278;-61
2022/05/15 13:01:25;;;;;;;5.07;2.40;;;;;;;;;;5012060;28;20188;-63
2022/05/15 13:03:56;;;;;;;4.83;2.67;;;;;;;;;;5007630;28;20301;-63
2022/05/15 13:06:52;;;;;;;3.27;2.67;;;;;;;;;;5006270;28;20211;-63
2022/05/15 13:09:26;;;;;;;4.87;2.63;;;;;;;;;;5006518;28;20215;-63
2022/05/15 13:11:58;;;;;;;5.03;2.93;;;;;;;;;;5023548;28;20187;-61
2022/05/15 13:14:40;;;;;;;6.50;3.00;;;;;;;;;;5021203;28;20255;-61
2022/05/15 13:17:10;;;;;;;4.33;2.50;;;;;;;;;;5005216;28;20305;-61
2022/05/15 13:19:42;;;;;;;10.07;3.60;;;;;;;;;;5007998;28;20180;-62
2022/05/15 13:22:14;;;;;;;17.37;5.53;;;;;;;;;;4991741;28;20274;-62
2022/05/15 13:24:41;;;;;;;26.80;8.10;;;;;;;;;;5008860;28;20251;-62
2022/05/15 13:27:09;;;;;;;20.27;7.20;;;;;;;;;;5000591;28;20247;-62
2022/05/15 13:29:37;;;;;;;20.10;7.20;;;;;;;;;;4992556;28;20443;-62
2022/05/15 13:32:05;;;;;;;17.73;6.67;;;;;;;;;;5010930;28;20246;-63
2022/05/15 13:34:34;;;;;;;17.47;6.47;;;;;;;;;;5000038;28;20242;-63
2022/05/15 13:37:06;;;;;;;10.83;6.03;;;;;;;;;;5003314;28;20270;-63
2022/05/15 13:45:12;;;;;;;10.23;5.03;;;;;;;;;;5006365;28;20216;-63
2022/05/15 13:47:57;;;;;;;11.57;4.53;;;;;;;;;;5007457;28;20203;-63
2022/05/15 13:50:34;;;;;;;13.40;5.20;;;;;;;;;;4986474;28;20198;-64
2022/05/15 13:53:18;;;;;;;12.87;5.43;;;;;;;;;;4997597;28;20226;-63
2022/05/15 13:55:46;;;;;;;11.00;5.50;;;;;;;;;;5008798;28;20202;-62
2022/05/15 13:58:16;;;;;;;14.47;5.93;;;;;;;;;;5008156;28;20900;-62
2022/05/15 14:01:00;;;;;;;19.33;5.67;;;;;;;;;;5004766;28;20246;-62
2022/05/15 14:03:29;;;;;;;15.60;5.83;;;;;;;;;;5007815;28;20188;-62
2022/05/15 14:06:12;;;;;;;14.03;5.10;;;;;;;;;;5006006;28;20227;-62
2022/05/15 14:08:54;;;;;;;15.13;6.17;;;;;;;;;;5000745;28;20203;-63
2022/05/15 14:11:22;;;;;;;21.43;6.17;;;;;;;;;;4977712;28;20216;-62
2022/05/15 14:13:50;;;;;;;14.77;6.00;;;;;;;;;;4996800;28;20217;-62
2022/05/15 14:16:25;;;;;;;20.27;5.97;;;;;;;;;;4983028;28;20195;-62
2022/05/15 14:18:53;;;;;;;15.60;5.83;;;;;;;;;;4970610;28;20196;-62
2022/05/15 14:21:22;;;;;;;14.80;5.53;;;;;;;;;;4988803;28;20270;-63
2022/05/15 14:23:52;;;;;;;10.97;4.30;;;;;;;;;;4987580;28;20216;-63
2022/05/15 14:26:24;;;;;;;11.23;5.30;;;;;;;;;;5001002;28;20207;-63
2022/05/15 14:28:56;;;;;;;12.17;4.70;;;;;;;;;;4965548;28;20217;-63
2022/05/15 14:31:39;;;;;;;12.77;5.07;;;;;;;;;;5006455;28;20258;-64
2022/05/15 14:34:18;;;;;;;15.83;5.53;;;;;;;;;;4980313;28;20254;-64
2022/05/15 14:36:48;;;;;;;9.70;5.23;;;;;;;;;;4991269;28;20503;-62
2022/05/15 14:39:24;;;;;;;11.17;5.20;;;;;;;;;;4986322;28;20199;-62
2022/05/15 14:41:56;;;;;;;7.37;4.70;;;;;;;;;;4989005;28;20215;-62
2022/05/15 14:44:25;;;;;;;10.80;4.83;;;;;;;;;;5000481;28;20212;-62
2022/05/15 14:47:00;;;;;;;9.17;4.43;;;;;;;;;;5001177;28;20247;-64
2022/05/15 14:49:31;;;;;;;8.63;4.30;;;;;;;;;;4998314;28;20219;-64
2022/05/15 14:52:01;;;;;;;8.63;3.70;;;;;;;;;;4959447;28;20208;-64
2022/05/15 14:54:32;;;;;;;9.07;4.03;;;;;;;;;;4993190;28;20724;-64
2022/05/15 14:57:04;;;;;;;6.07;3.80;;;;;;;;;;4995044;28;20673;-64
2022/05/15 14:59:39;;;;;;;8.23;3.63;;;;;;;;;;4987926;28;20196;-64
2022/05/15 15:02:09;;;;;;;7.27;3.30;;;;;;;;;;4998438;28;20200;-64
2022/05/15 15:04:42;;;;;;;7.53;4.03;;;;;;;;;;4982430;28;20236;-64
2022/05/15 15:07:14;;;;;;;7.20;3.73;;;;;;;;;;4995475;28;20267;-64
2022/05/15 15:09:41;;;;;;;9.40;3.80;;;;;;;;;;4980897;28;20240;-65
2022/05/15 15:12:09;;;;;;;7.57;3.57;;;;;;;;;;4999699;28;20199;-62
2022/05/15 15:14:38;;;;;;;6.90;3.47;;;;;;;;;;4997297;28;20399;-61
2022/05/15 15:17:05;;;;;;;4.77;3.30;;;;;;;;;;4985521;28;20224;-60
2022/05/15 15:19:36;;;;;;;5.33;3.43;;;;;;;;;;4995599;28;20200;-62
2022/05/15 15:22:06;;;;;;;4.10;3.27;;;;;;;;;;4990254;28;20196;-62
2022/05/15 15:24:35;;;;;;;4.93;2.83;;;;;;;;;;4992555;28;20216;-63
2022/05/15 15:27:04;;;;;;;4.10;3.00;;;;;;;;;;4990846;28;20201;-62
2022/05/15 15:29:32;;;;;;;4.87;3.23;;;;;;;;;;4986152;28;20208;-63
2022/05/15 15:32:01;;;;;;;4.97;3.17;;;;;;;;;;4997668;28;20207;-61
2022/05/15 15:34:30;;;;;;;4.70;2.80;;;;;;;;;;4994906;28;20201;-61
2022/05/15 15:39:48;;;;;;;4.30;3.07;;;;;;;;;;4985464;28;20215;-62
2022/05/15 15:42:18;;;;;;;3.77;2.30;;;;;;;;;;4985739;28;20212;-61
2022/05/15 15:44:47;;;;;;;3.50;2.63;;;;;;;;;;4986456;28;20220;-62
2022/05/15 15:47:14;;;;;;;3.83;2.83;;;;;;;;;;4990063;28;20226;-62
2022/05/15 15:49:41;;;;;;;6.57;2.97;;;;;;;;;;4988177;28;20196;-63
2022/05/15 15:52:12;;;;;;;6.60;2.90;;;;;;;;;;4994578;28;20509;-65